Time;durP1;ratioP1;P1;durP2;ratioP2;P2;SDS_P1;SDS_P2;PMS_P1;PMS_P2;Temp;Humidity;BMP_temperature;BMP_pressure;BME280_temperature;BME280_humidity;BME280_pressure;Samples;Min_cycle;Max_cycle;Signal;HPM_P1;HPM_P2
2024/03/27 00:00:13;;;;;;;;;;;12.00;1.00;;;;;;5054125;28;19931;-67
2024/03/27 00:02:38;;;;;;;;;;;12.00;1.00;;;;;;5054729;28;19933;-67
2024/03/27 00:05:04;;;;;;;;;;;12.00;1.00;;;;;;5054808;28;20352;-67
2024/03/27 00:07:30;;;;;;;;;;;11.90;1.00;;;;;;5054187;28;19905;-67
2024/03/27 00:09:55;;;;;;;;;;;11.90;1.00;;;;;;5054372;28;19909;-67
2024/03/27 00:12:21;;;;;;;;;;;11.80;1.00;;;;;;5054393;28;19904;-67
2024/03/27 00:14:47;;;;;;;;;;;11.80;1.00;;;;;;5054299;28;19959;-66
2024/03/27 00:17:13;;;;;;;;;;;11.60;1.00;;;;;;5053860;28;19916;-67
2024/03/27 00:19:38;;;;;;;;;;;11.70;1.00;;;;;;5054148;28;19905;-66
2024/03/27 00:22:04;;;;;;;;;;;11.60;1.00;;;;;;5054270;28;19943;-67
2024/03/27 00:24:31;;;;;;;;;;;11.60;1.00;;;;;;5054130;28;19904;-66
2024/03/27 00:26:56;;;;;;;;;;;11.50;1.00;;;;;;5053827;28;20000;-67
2024/03/27 00:29:22;;;;;;;;;;;11.50;1.00;;;;;;5053905;28;20007;-67
2024/03/27 00:31:49;;;;;;;;;;;11.50;1.00;;;;;;5053978;28;19935;-67
2024/03/27 00:34:14;;;;;;;;;;;11.40;1.00;;;;;;5053964;28;19909;-67
2024/03/27 00:36:40;;;;;;;;;;;11.40;1.00;;;;;;5053726;28;20431;-67
2024/03/27 00:39:06;;;;;;;;;;;11.40;1.00;;;;;;5054098;28;19940;-67
2024/03/27 00:41:32;;;;;;;;;;;11.50;1.00;;;;;;5053822;28;19905;-67
2024/03/27 00:43:57;;;;;;;;;;;11.50;1.00;;;;;;5053692;28;19912;-67
2024/03/27 00:46:23;;;;;;;;;;;11.50;1.00;;;;;;5053465;28;19908;-67
2024/03/27 00:48:48;;;;;;;;;;;11.50;1.00;;;;;;5053506;28;20445;-67
2024/03/27 00:51:14;;;;;;;;;;;11.50;1.00;;;;;;5053641;28;19908;-67
2024/03/27 00:53:39;;;;;;;;;;;11.50;1.00;;;;;;5053550;28;19955;-67
2024/03/27 00:56:06;;;;;;;;;;;11.50;1.00;;;;;;5053529;28;19908;-67
2024/03/27 00:58:31;;;;;;;;;;;11.50;1.00;;;;;;5053377;28;20000;-66
2024/03/27 01:00:57;;;;;;;;;;;11.50;1.00;;;;;;5053466;28;19905;-66
2024/03/27 01:03:23;;;;;;;;;;;11.50;1.00;;;;;;5053391;28;19909;-67
2024/03/27 01:05:48;;;;;;;;;;;11.50;1.00;;;;;;5053388;28;19911;-66
2024/03/27 01:08:14;;;;;;;;;;;11.50;1.00;;;;;;5052990;28;19905;-67
2024/03/27 01:10:39;;;;;;;;;;;11.50;1.00;;;;;;5052829;28;20275;-67
2024/03/27 01:13:09;;;;;;;;;;;11.50;1.00;;;;;;5052543;28;19909;-67
2024/03/27 01:15:35;;;;;;;;;;;11.50;1.00;;;;;;5053201;28;19911;-67
2024/03/27 01:18:02;;;;;;;;;;;11.40;1.00;;;;;;5052632;28;20007;-67
2024/03/27 01:20:29;;;;;;;;;;;11.40;1.00;;;;;;5053112;28;20364;-67
2024/03/27 01:22:55;;;;;;;;;;;11.40;1.00;;;;;;5053051;28;20330;-67
2024/03/27 01:25:21;;;;;;;;;;;11.50;1.00;;;;;;5053029;28;19911;-67
2024/03/27 01:27:46;;;;;;;;;;;11.50;1.00;;;;;;5052660;28;20288;-67
2024/03/27 01:30:12;;;;;;;;;;;11.60;1.00;;;;;;5052845;28;20414;-67
2024/03/27 01:32:37;;;;;;;;;;;11.70;1.00;;;;;;5052821;28;20398;-67
2024/03/27 01:35:03;;;;;;;;;;;11.70;1.00;;;;;;5052849;28;19909;-67
2024/03/27 01:37:29;;;;;;;;;;;11.80;1.00;;;;;;5052435;28;19908;-67
2024/03/27 01:39:54;;;;;;;;;;;11.80;1.00;;;;;;5052665;28;19911;-67
2024/03/27 01:42:20;;;;;;;;;;;11.80;1.00;;;;;;5052676;28;19916;-66
2024/03/27 01:44:45;;;;;;;;;;;11.70;1.00;;;;;;5052686;28;19904;-67
2024/03/27 01:47:13;;;;;;;;;;;11.60;1.00;;;;;;5052294;28;19905;-67
2024/03/27 01:49:39;;;;;;;;;;;11.70;1.00;;;;;;5051397;28;19916;-67
2024/03/27 01:52:05;;;;;;;;;;;11.60;1.00;;;;;;5052510;28;19927;-67
2024/03/27 01:54:30;;;;;;;;;;;11.60;1.00;;;;;;5052434;28;19931;-66
2024/03/27 01:56:57;;;;;;;;;;;11.60;1.00;;;;;;5052237;28;19909;-67
2024/03/27 01:59:23;;;;;;;;;;;11.60;1.00;;;;;;5052420;28;19955;-67
2024/03/27 02:01:48;;;;;;;;;;;11.60;1.00;;;;;;5052421;28;19905;-67
2024/03/27 02:04:14;;;;;;;;;;;11.60;1.00;;;;;;5052353;28;19904;-67
2024/03/27 02:06:40;;;;;;;;;;;11.60;1.00;;;;;;5052152;28;19951;-67
2024/03/27 02:09:06;;;;;;;;;;;11.60;1.00;;;;;;5052163;28;20413;-67
2024/03/27 02:11:32;;;;;;;;;;;11.60;1.00;;;;;;5052311;28;19987;-67
2024/03/27 02:13:57;;;;;;;;;;;11.50;1.00;;;;;;5052257;28;19944;-67
2024/03/27 02:16:23;;;;;;;;;;;11.50;31.40;;;;;;5051885;28;19909;-67
2024/03/27 02:18:48;;;;;;;;;;;11.40;61.90;;;;;;5052172;28;19908;-67
2024/03/27 02:21:14;;;;;;;;;;;11.40;54.80;;;;;;5052215;28;19982;-67
2024/03/27 02:23:43;;;;;;;;;;;11.30;99.90;;;;;;5056676;28;19905;-67
2024/03/27 02:26:14;;;;;;;;;;;11.30;99.90;;;;;;5058587;28;20257;-66
2024/03/27 02:28:40;;;;;;;;;;;11.30;99.90;;;;;;5058762;28;19904;-67
2024/03/27 02:31:05;;;;;;;;;;;11.30;99.90;;;;;;5058585;28;19999;-67
2024/03/27 02:33:31;;;;;;;;;;;11.30;99.90;;;;;;5058739;28;19904;-67
2024/03/27 02:35:56;;;;;;;;;;;11.30;99.90;;;;;;5058731;28;20424;-67
2024/03/27 02:38:23;;;;;;;;;;;11.30;99.90;;;;;;5058360;28;19958;-67
2024/03/27 02:40:49;;;;;;;;;;;11.30;99.90;;;;;;5058895;28;20332;-67
2024/03/27 02:43:14;;;;;;;;;;;11.20;1.00;;;;;;5058651;28;19908;-67
2024/03/27 02:45:40;;;;;;;;;;;11.30;1.00;;;;;;5058609;28;20284;-67
2024/03/27 02:48:05;;;;;;;;;;;11.30;1.00;;;;;;5058265;28;19905;-67
2024/03/27 02:50:31;;;;;;;;;;;11.30;1.00;;;;;;5058581;28;19909;-67
2024/03/27 02:52:56;;;;;;;;;;;11.30;1.00;;;;;;5058560;28;19905;-67
2024/03/27 02:55:22;;;;;;;;;;;11.30;39.10;;;;;;5058569;28;19959;-66
2024/03/27 02:57:47;;;;;;;;;;;11.30;93.00;;;;;;5058266;28;19912;-66
2024/03/27 03:00:13;;;;;;;;;;;11.30;99.90;;;;;;5058484;28;19959;-67
2024/03/27 03:02:39;;;;;;;;;;;11.40;99.90;;;;;;5058600;28;19905;-67
2024/03/27 03:05:05;;;;;;;;;;;11.40;60.10;;;;;;5058575;28;19928;-67
2024/03/27 03:07:30;;;;;;;;;;;11.50;99.90;;;;;;5058122;28;19912;-67
2024/03/27 03:09:56;;;;;;;;;;;11.50;1.00;;;;;;5058393;28;19916;-67
2024/03/27 03:12:21;;;;;;;;;;;11.50;1.00;;;;;;5058419;28;19904;-67
2024/03/27 03:14:47;;;;;;;;;;;11.60;1.00;;;;;;5058380;28;20349;-67
2024/03/27 03:17:12;;;;;;;;;;;11.40;99.90;;;;;;5057931;28;20005;-67
2024/03/27 03:19:37;;;;;;;;;;;11.60;70.70;;;;;;5058404;28;19935;-66
2024/03/27 03:22:04;;;;;;;;;;;11.60;10.70;;;;;;5058348;28;19962;-67
2024/03/27 03:24:29;;;;;;;;;;;11.60;11.20;;;;;;5058525;28;19911;-67
2024/03/27 03:26:55;;;;;;;;;;;11.60;12.80;;;;;;5058069;28;19905;-67
2024/03/27 03:29:21;;;;;;;;;;;11.60;13.80;;;;;;5058111;28;19966;-67
2024/03/27 03:31:46;;;;;;;;;;;11.50;16.60;;;;;;5058360;28;19987;-67
2024/03/27 03:34:12;;;;;;;;;;;11.50;16.90;;;;;;5056269;28;20361;-66
2024/03/27 03:36:38;;;;;;;;;;;11.40;16.20;;;;;;5054821;28;19905;-67
2024/03/27 03:39:04;;;;;;;;;;;11.40;17.70;;;;;;5054949;28;20267;-67
2024/03/27 03:41:29;;;;;;;;;;;11.40;18.00;;;;;;5055404;28;19904;-67
2024/03/27 03:43:55;;;;;;;;;;;11.30;18.50;;;;;;5054957;28;19911;-67
2024/03/27 03:46:20;;;;;;;;;;;11.40;20.20;;;;;;5054862;28;19944;-66
2024/03/27 03:48:46;;;;;;;;;;;11.40;20.30;;;;;;5054933;28;19911;-66
2024/03/27 03:51:11;;;;;;;;;;;11.40;20.60;;;;;;5054968;28;20031;-66
2024/03/27 03:53:37;;;;;;;;;;;11.30;17.90;;;;;;5054977;28;19905;-66
2024/03/27 03:56:02;;;;;;;;;;;11.30;18.70;;;;;;5054937;28;19905;-66
2024/03/27 03:58:28;;;;;;;;;;;11.40;19.60;;;;;;5054558;28;19999;-66
2024/03/27 04:00:54;;;;;;;;;;;11.60;18.10;;;;;;5054842;28;19909;-66
2024/03/27 04:03:20;;;;;;;;;;;11.60;16.70;;;;;;5054939;28;19905;-66
2024/03/27 04:05:46;;;;;;;;;;;11.50;17.20;;;;;;5054886;28;19911;-66
2024/03/27 04:08:11;;;;;;;;;;;11.40;19.80;;;;;;5054528;28;19999;-66
2024/03/27 04:10:37;;;;;;;;;;;11.40;21.60;;;;;;5054649;28;19915;-66
2024/03/27 04:13:03;;;;;;;;;;;11.30;24.30;;;;;;5054460;28;20284;-66
2024/03/27 04:15:28;;;;;;;;;;;11.30;26.70;;;;;;5054476;28;19904;-66
2024/03/27 04:17:54;;;;;;;;;;;11.30;26.50;;;;;;5053859;28;19913;-66
2024/03/27 04:20:19;;;;;;;;;;;11.30;27.40;;;;;;5054218;28;20065;-67
2024/03/27 04:22:45;;;;;;;;;;;11.30;28.70;;;;;;5054182;28;20372;-67
2024/03/27 04:25:11;;;;;;;;;;;11.50;28.60;;;;;;5054293;28;19943;-67
2024/03/27 04:27:36;;;;;;;;;;;11.50;28.00;;;;;;5053746;28;20376;-67
2024/03/27 04:30:02;;;;;;;;;;;11.50;29.70;;;;;;5054022;28;19908;-67
2024/03/27 04:32:27;;;;;;;;;;;11.50;29.00;;;;;;5053964;28;19931;-66
2024/03/27 04:34:53;;;;;;;;;;;11.60;27.40;;;;;;5053977;28;19920;-66
2024/03/27 04:37:18;;;;;;;;;;;11.60;35.20;;;;;;5053613;28;20368;-67
2024/03/27 04:39:44;;;;;;;;;;;11.80;21.60;;;;;;5053926;28;19901;-67
2024/03/27 04:42:10;;;;;;;;;;;11.80;24.00;;;;;;5053805;28;19911;-66
2024/03/27 04:44:36;;;;;;;;;;;11.90;20.50;;;;;;5053839;28;20337;-66
2024/03/27 04:47:02;;;;;;;;;;;11.80;19.60;;;;;;5053440;28;19939;-67
2024/03/27 04:49:27;;;;;;;;;;;11.80;20.00;;;;;;5053951;28;20339;-66
2024/03/27 04:51:53;;;;;;;;;;;11.70;20.70;;;;;;5053728;28;19934;-66
2024/03/27 04:54:18;;;;;;;;;;;11.70;19.80;;;;;;5053591;28;19905;-66
2024/03/27 04:56:44;;;;;;;;;;;11.60;20.10;;;;;;5053273;28;19911;-66
2024/03/27 04:59:09;;;;;;;;;;;11.60;21.00;;;;;;5053511;28;19909;-66
2024/03/27 05:01:35;;;;;;;;;;;11.50;23.30;;;;;;5053501;28;19911;-66
2024/03/27 05:04:02;;;;;;;;;;;11.50;25.60;;;;;;5053410;28;20323;-66
2024/03/27 05:06:27;;;;;;;;;;;11.50;26.80;;;;;;5053336;28;19932;-66
2024/03/27 05:08:53;;;;;;;;;;;11.30;30.30;;;;;;5053208;28;19970;-66
2024/03/27 05:11:18;;;;;;;;;;;11.40;33.20;;;;;;5053299;28;19912;-66
2024/03/27 05:13:44;;;;;;;;;;;11.40;35.80;;;;;;5053185;28;19912;-66
2024/03/27 05:16:10;;;;;;;;;;;11.40;36.50;;;;;;5052997;28;19904;-66
2024/03/27 05:18:36;;;;;;;;;;;11.40;37.60;;;;;;5052921;28;19966;-66
2024/03/27 05:21:02;;;;;;;;;;;11.50;36.60;;;;;;5053033;28;19958;-66
2024/03/27 05:23:28;;;;;;;;;;;11.50;37.60;;;;;;5053050;28;19905;-66
2024/03/27 05:25:55;;;;;;;;;;;11.50;37.40;;;;;;5053009;28;19908;-66
2024/03/27 05:28:20;;;;;;;;;;;11.40;37.50;;;;;;5052630;28;19904;-66
2024/03/27 05:30:46;;;;;;;;;;;11.50;37.90;;;;;;5053134;28;19915;-67
2024/03/27 05:33:11;;;;;;;;;;;11.40;38.40;;;;;;5053853;28;19944;-67
2024/03/27 05:35:37;;;;;;;;;;;11.20;39.70;;;;;;5054044;28;19904;-67
2024/03/27 05:38:03;;;;;;;;;;;11.40;39.20;;;;;;5053782;28;19975;-67
2024/03/27 05:40:28;;;;;;;;;;;11.40;37.80;;;;;;5054079;28;19905;-67
2024/03/27 05:42:54;;;;;;;;;;;11.40;38.50;;;;;;5053963;28;19946;-67
2024/03/27 05:45:20;;;;;;;;;;;11.30;39.80;;;;;;5054204;28;19905;-67
2024/03/27 05:47:45;;;;;;;;;;;11.30;40.80;;;;;;5052892;28;20356;-67
2024/03/27 05:50:11;;;;;;;;;;;11.20;43.20;;;;;;5052514;28;19912;-66
2024/03/27 05:52:36;;;;;;;;;;;11.10;43.50;;;;;;5051267;28;20008;-67
2024/03/27 05:55:03;;;;;;;;;;;11.10;46.90;;;;;;5052538;28;19904;-67
2024/03/27 05:57:29;;;;;;;;;;;11.00;52.10;;;;;;5052864;28;19911;-67
2024/03/27 05:59:54;;;;;;;;;;;10.90;55.60;;;;;;5053717;28;20007;-67
2024/03/27 06:02:20;;;;;;;;;;;10.90;60.80;;;;;;5053599;28;19905;-67
2024/03/27 06:04:45;;;;;;;;;;;10.90;61.00;;;;;;5053642;28;19952;-67
2024/03/27 06:07:11;;;;;;;;;;;10.90;88.20;;;;;;5052507;28;20269;-67
2024/03/27 06:09:36;;;;;;;;;;;10.80;61.60;;;;;;5052280;28;19920;-67
2024/03/27 06:12:03;;;;;;;;;;;10.80;64.20;;;;;;5052322;28;20296;-67
2024/03/27 06:14:29;;;;;;;;;;;10.80;63.60;;;;;;5052251;28;19960;-67
2024/03/27 06:16:54;;;;;;;;;;;10.70;62.40;;;;;;5051990;28;19952;-67
2024/03/27 06:19:20;;;;;;;;;;;10.80;59.00;;;;;;5052135;28;20276;-66
2024/03/27 06:21:45;;;;;;;;;;;10.80;53.90;;;;;;5052193;28;19927;-66
2024/03/27 06:24:10;;;;;;;;;;;10.70;51.60;;;;;;5052229;28;20380;-66
2024/03/27 06:26:36;;;;;;;;;;;10.70;51.50;;;;;;5051916;28;19911;-66
2024/03/27 06:29:01;;;;;;;;;;;10.70;50.00;;;;;;5052019;28;19905;-66
2024/03/27 06:31:27;;;;;;;;;;;10.70;46.60;;;;;;5052186;28;19904;-66
2024/03/27 06:33:54;;;;;;;;;;;10.70;44.30;;;;;;5052042;28;19909;-66
2024/03/27 06:36:20;;;;;;;;;;;10.80;40.40;;;;;;5051810;28;19904;-66
2024/03/27 06:38:47;;;;;;;;;;;10.80;41.10;;;;;;5052031;28;20345;-66
2024/03/27 06:41:12;;;;;;;;;;;10.90;36.30;;;;;;5052048;28;19905;-67
2024/03/27 06:43:38;;;;;;;;;;;10.90;29.80;;;;;;5051929;28;19911;-67
2024/03/27 06:46:04;;;;;;;;;;;10.90;29.80;;;;;;5051982;28;19904;-67
2024/03/27 06:48:43;;;;;;;;;;;10.80;28.10;;;;;;5051589;28;19909;-67
2024/03/27 06:51:08;;;;;;;;;;;10.80;27.60;;;;;;5051859;28;19917;-67
2024/03/27 06:53:34;;;;;;;;;;;10.80;27.80;;;;;;5051864;28;19958;-67
2024/03/27 06:56:01;;;;;;;;;;;10.80;27.30;;;;;;5051825;28;20436;-67
2024/03/27 06:58:26;;;;;;;;;;;10.80;26.60;;;;;;5051550;28;20280;-67
2024/03/27 07:00:53;;;;;;;;;;;10.80;25.80;;;;;;5051830;28;20036;-67
2024/03/27 07:03:18;;;;;;;;;;;10.80;25.90;;;;;;5051819;28;19912;-67
2024/03/27 07:05:44;;;;;;;;;;;10.70;28.00;;;;;;5051853;28;20373;-67
2024/03/27 07:08:09;;;;;;;;;;;10.70;29.30;;;;;;5052122;28;19959;-67
2024/03/27 07:10:34;;;;;;;;;;;10.60;30.30;;;;;;5054456;28;19909;-67
2024/03/27 07:13:00;;;;;;;;;;;10.70;34.00;;;;;;5056496;28;20284;-67
2024/03/27 07:15:25;;;;;;;;;;;10.60;34.70;;;;;;5055899;28;19996;-67
2024/03/27 07:17:51;;;;;;;;;;;10.70;35.80;;;;;;5055920;28;19913;-67
2024/03/27 07:20:16;;;;;;;;;;;10.70;35.90;;;;;;5056192;28;19905;-67
2024/03/27 07:22:42;;;;;;;;;;;10.80;35.30;;;;;;5055760;28;19904;-67
2024/03/27 07:25:09;;;;;;;;;;;10.80;36.60;;;;;;5055968;28;19931;-67
2024/03/27 07:27:36;;;;;;;;;;;10.90;36.80;;;;;;5055380;28;19905;-67
2024/03/27 07:30:01;;;;;;;;;;;11.00;38.90;;;;;;5055582;28;19909;-67
2024/03/27 07:32:27;;;;;;;;;;;11.00;37.80;;;;;;5055684;28;19911;-67
2024/03/27 07:34:52;;;;;;;;;;;11.10;34.60;;;;;;5056070;28;19909;-67
2024/03/27 07:37:18;;;;;;;;;;;11.30;54.90;;;;;;5055460;28;19940;-67
2024/03/27 07:39:43;;;;;;;;;;;11.20;36.40;;;;;;5055584;28;19912;-67
2024/03/27 07:42:08;;;;;;;;;;;11.20;37.30;;;;;;5055519;28;19991;-67
2024/03/27 07:44:34;;;;;;;;;;;11.30;35.00;;;;;;5055111;28;19959;-67
2024/03/27 07:46:59;;;;;;;;;;;11.40;33.50;;;;;;5055297;28;19905;-67
2024/03/27 07:49:25;;;;;;;;;;;11.30;29.90;;;;;;5055209;28;20318;-67
2024/03/27 07:51:50;;;;;;;;;;;11.30;31.90;;;;;;5055230;28;19912;-67
2024/03/27 07:54:16;;;;;;;;;;;11.30;28.80;;;;;;5054955;28;20007;-67
2024/03/27 07:56:42;;;;;;;;;;;11.30;29.00;;;;;;5054542;28;19927;-66
2024/03/27 07:59:08;;;;;;;;;;;11.40;28.50;;;;;;5054713;28;20403;-67
2024/03/27 08:01:34;;;;;;;;;;;11.40;29.80;;;;;;5054616;28;19905;-66
2024/03/27 08:03:59;;;;;;;;;;;11.40;28.40;;;;;;5054612;28;20011;-67
2024/03/27 08:06:25;;;;;;;;;;;11.40;25.50;;;;;;5054325;28;20349;-67
2024/03/27 08:08:50;;;;;;;;;;;11.40;26.20;;;;;;5054471;28;19905;-67
2024/03/27 08:11:16;;;;;;;;;;;11.40;28.90;;;;;;5054416;28;19909;-67
2024/03/27 08:13:41;;;;;;;;;;;11.50;29.80;;;;;;5053753;28;20003;-67
2024/03/27 08:16:07;;;;;;;;;;;11.50;30.10;;;;;;5054228;28;19908;-67
2024/03/27 08:18:48;;;;;;;;;;;11.50;35.00;;;;;;5053938;28;20411;-67
2024/03/27 08:21:13;;;;;;;;;;;11.50;29.80;;;;;;5053828;28;19927;-67
2024/03/27 08:23:39;;;;;;;;;;;11.40;28.60;;;;;;5054129;28;19999;-67
2024/03/27 08:26:05;;;;;;;;;;;11.40;29.60;;;;;;5054209;28;19924;-66
2024/03/27 08:28:30;;;;;;;;;;;11.40;30.20;;;;;;5053938;28;20303;-67
2024/03/27 08:30:56;;;;;;;;;;;11.30;26.10;;;;;;5054183;28;19956;-67
2024/03/27 08:33:21;;;;;;;;;;;11.30;25.40;;;;;;5054229;28;19905;-67
2024/03/27 08:35:53;;;;;;;;;;;11.30;27.10;;;;;;5054084;28;19959;-67
2024/03/27 08:38:18;;;;;;;;;;;11.30;28.40;;;;;;5053758;28;20258;-67
2024/03/27 08:40:53;;;;;;;;;;;11.40;23.90;;;;;;5054095;28;19991;-67
2024/03/27 08:43:19;;;;;;;;;;;11.30;23.50;;;;;;5054312;28;20384;-67
2024/03/27 08:45:44;;;;;;;;;;;11.20;23.90;;;;;;5054010;28;19905;-66
2024/03/27 08:48:10;;;;;;;;;;;11.10;26.20;;;;;;5053400;28;19912;-66
2024/03/27 08:50:37;;;;;;;;;;;11.10;26.90;;;;;;5053553;28;19960;-66
2024/03/27 08:53:03;;;;;;;;;;;11.00;26.70;;;;;;5053596;28;19916;-67
2024/03/27 08:55:28;;;;;;;;;;;11.10;28.10;;;;;;5053631;28;19905;-67
2024/03/27 08:57:54;;;;;;;;;;;11.00;28.70;;;;;;5053240;28;19905;-67
2024/03/27 09:00:20;;;;;;;;;;;11.10;36.20;;;;;;5053494;28;19908;-67
2024/03/27 09:02:48;;;;;;;;;;;11.00;34.30;;;;;;5053467;28;20428;-67
2024/03/27 09:05:17;;;;;;;;;;;11.10;38.90;;;;;;5053461;28;19911;-67
2024/03/27 09:07:42;;;;;;;;;;;11.10;39.80;;;;;;5052947;28;19962;-67
2024/03/27 09:10:08;;;;;;;;;;;11.10;45.00;;;;;;5053220;28;20353;-67
2024/03/27 09:12:34;;;;;;;;;;;11.10;41.40;;;;;;5050658;28;19911;-68
2024/03/27 09:14:59;;;;;;;;;;;11.10;41.70;;;;;;5053257;28;19916;-68
2024/03/27 09:17:25;;;;;;;;;;;11.00;57.70;;;;;;5052786;28;20391;-68
2024/03/27 09:19:51;;;;;;;;;;;11.10;39.50;;;;;;5050282;28;19909;-68
2024/03/27 09:22:16;;;;;;;;;;;11.10;44.90;;;;;;5052825;28;19911;-68
2024/03/27 09:24:42;;;;;;;;;;;11.10;42.50;;;;;;5052870;28;20414;-68
2024/03/27 09:27:11;;;;;;;;;;;11.00;45.30;;;;;;5050953;28;20003;-66
2024/03/27 09:29:37;;;;;;;;;;;11.00;50.50;;;;;;5052636;28;19909;-67
2024/03/27 09:32:02;;;;;;;;;;;10.80;45.80;;;;;;5052142;28;20323;-68
2024/03/27 09:34:29;;;;;;;;;;;10.70;51.00;;;;;;5033923;28;19905;-68
2024/03/27 09:36:55;;;;;;;;;;;10.60;49.20;;;;;;5051273;28;20349;-67
2024/03/27 09:39:21;;;;;;;;;;;10.60;55.10;;;;;;5050768;28;19955;-67
2024/03/27 09:41:47;;;;;;;;;;;10.50;51.50;;;;;;5052426;28;19909;-67
2024/03/27 09:44:14;;;;;;;;;;;10.50;54.20;;;;;;5052538;28;19908;-67
2024/03/27 09:46:41;;;;;;;;;;;10.50;56.80;;;;;;5052430;28;19912;-67
2024/03/27 09:49:09;;;;;;;;;;;10.40;59.80;;;;;;5052310;28;19905;-67
2024/03/27 09:51:35;;;;;;;;;;;10.30;62.60;;;;;;5052263;28;19905;-67
2024/03/27 09:54:10;;;;;;;;;;;10.30;69.60;;;;;;5052467;28;20050;-67
2024/03/27 09:56:36;;;;;;;;;;;10.30;72.00;;;;;;5052070;28;19904;-67
2024/03/27 09:59:02;;;;;;;;;;;10.20;68.70;;;;;;5050615;28;19931;-67
2024/03/27 10:01:28;;;;;;;;;;;10.20;70.60;;;;;;5051913;28;19928;-67
2024/03/27 10:03:54;;;;;;;;;;;10.20;78.00;;;;;;5052106;28;19985;-67
2024/03/27 10:06:20;;;;;;;;;;;10.20;78.40;;;;;;5051933;28;19951;-67
2024/03/27 10:08:48;;;;;;;;;;;10.20;82.50;;;;;;5052048;28;19948;-67
2024/03/27 10:11:15;;;;;;;;;;;10.20;85.80;;;;;;5051902;28;20395;-67
2024/03/27 10:13:40;;;;;;;;;;;10.20;88.50;;;;;;5052340;28;19904;-67
2024/03/27 10:16:08;;;;;;;;;;;10.20;85.90;;;;;;5052233;28;20391;-67
2024/03/27 10:18:34;;;;;;;;;;;10.20;88.40;;;;;;5051675;28;20392;-67
2024/03/27 10:20:59;;;;;;;;;;;10.20;85.40;;;;;;5052092;28;19951;-67
2024/03/27 10:23:25;;;;;;;;;;;10.20;84.70;;;;;;5052101;28;20303;-67
2024/03/27 10:25:50;;;;;;;;;;;10.20;92.60;;;;;;5052167;28;19905;-67
2024/03/27 10:28:16;;;;;;;;;;;10.20;94.30;;;;;;5051812;28;20373;-67
2024/03/27 10:30:42;;;;;;;;;;;10.20;94.80;;;;;;5053117;28;20292;-67
2024/03/27 10:33:08;;;;;;;;;;;10.10;94.00;;;;;;5053239;28;19905;-67
2024/03/27 10:35:36;;;;;;;;;;;10.10;94.70;;;;;;5052783;28;19905;-67
2024/03/27 10:38:02;;;;;;;;;;;9.90;96.00;;;;;;5052142;28;19936;-67
2024/03/27 10:40:28;;;;;;;;;;;9.90;96.60;;;;;;5052140;28;20257;-67
2024/03/27 10:43:06;;;;;;;;;;;9.80;95.70;;;;;;5052363;28;19967;-67
2024/03/27 10:45:34;;;;;;;;;;;9.70;99.90;;;;;;5057126;28;19916;-67
2024/03/27 10:48:00;;;;;;;;;;;9.70;99.90;;;;;;5055177;28;19958;-67
2024/03/27 10:50:27;;;;;;;;;;;9.60;99.90;;;;;;5055434;28;20357;-67
2024/03/27 10:52:53;;;;;;;;;;;9.60;99.90;;;;;;5055337;28;19908;-66
2024/03/27 10:55:18;;;;;;;;;;;9.60;99.90;;;;;;5054229;28;19908;-66
2024/03/27 10:57:45;;;;;;;;;;;9.60;99.90;;;;;;5053107;28;19905;-66
2024/03/27 11:00:12;;;;;;;;;;;9.50;99.90;;;;;;5052241;28;20288;-66
2024/03/27 11:02:37;;;;;;;;;;;9.50;99.90;;;;;;5051250;28;19905;-66
2024/03/27 11:05:05;;;;;;;;;;;9.60;99.90;;;;;;5051371;28;19915;-66
2024/03/27 11:07:34;;;;;;;;;;;9.50;99.90;;;;;;5049283;28;19959;-66
2024/03/27 11:09:59;;;;;;;;;;;9.50;99.90;;;;;;5051388;28;19909;-67
2024/03/27 11:12:27;;;;;;;;;;;9.50;99.90;;;;;;5051195;28;20634;-66
2024/03/27 11:14:52;;;;;;;;;;;9.50;99.90;;;;;;5050335;28;19967;-66
2024/03/27 11:17:25;;;;;;;;;;;9.50;99.90;;;;;;5051062;28;19956;-66
2024/03/27 11:19:51;;;;;;;;;;;9.40;99.90;;;;;;5050913;28;19955;-66
2024/03/27 11:22:16;;;;;;;;;;;9.40;99.90;;;;;;5050291;28;19937;-66
2024/03/27 11:24:43;;;;;;;;;;;9.30;99.90;;;;;;5050744;28;19911;-66
2024/03/27 11:27:08;;;;;;;;;;;9.30;99.90;;;;;;5051176;28;19913;-66
2024/03/27 11:29:34;;;;;;;;;;;9.30;99.90;;;;;;5049699;28;19966;-66
2024/03/27 11:32:00;;;;;;;;;;;9.30;99.90;;;;;;5051091;28;19940;-67
2024/03/27 11:34:26;;;;;;;;;;;9.30;99.90;;;;;;5050745;28;20343;-66
2024/03/27 11:36:53;;;;;;;;;;;9.40;99.90;;;;;;5050316;28;19948;-66
2024/03/27 11:39:20;;;;;;;;;;;9.50;99.90;;;;;;5051834;28;19952;-67
2024/03/27 11:41:46;;;;;;;;;;;9.60;99.90;;;;;;5049772;28;20348;-67
2024/03/27 11:44:12;;;;;;;;;;;9.60;99.90;;;;;;5050660;28;19909;-67
2024/03/27 11:46:37;;;;;;;;;;;9.60;99.90;;;;;;5051594;28;20380;-66
2024/03/27 11:49:03;;;;;;;;;;;9.50;99.90;;;;;;5054884;28;19904;-66
2024/03/27 11:51:29;;;;;;;;;;;9.40;99.90;;;;;;5055061;28;19947;-66
2024/03/27 11:53:56;;;;;;;;;;;9.40;99.90;;;;;;5054893;28;19936;-66
2024/03/27 11:56:23;;;;;;;;;;;9.30;99.90;;;;;;5053732;28;19991;-66
2024/03/27 11:58:48;;;;;;;;;;;9.30;99.90;;;;;;5054646;28;19931;-66
2024/03/27 12:01:14;;;;;;;;;;;9.40;99.90;;;;;;5054880;28;20356;-66
2024/03/27 12:03:39;;;;;;;;;;;9.30;99.90;;;;;;5054594;28;19905;-66
2024/03/27 12:06:05;;;;;;;;;;;9.30;99.90;;;;;;5054629;28;19905;-66
2024/03/27 12:08:32;;;;;;;;;;;9.20;99.90;;;;;;5053935;28;20284;-66
2024/03/27 12:10:57;;;;;;;;;;;9.20;99.90;;;;;;5054523;28;19948;-66
2024/03/27 12:13:22;;;;;;;;;;;9.40;99.90;;;;;;5054371;28;19963;-66
2024/03/27 12:15:48;;;;;;;;;;;9.20;99.90;;;;;;5054502;28;19912;-66
2024/03/27 12:18:13;;;;;;;;;;;9.40;99.90;;;;;;5053964;28;19916;-66
2024/03/27 12:20:39;;;;;;;;;;;9.30;99.90;;;;;;5054421;28;19919;-67
2024/03/27 12:23:05;;;;;;;;;;;9.50;99.90;;;;;;5054173;28;19991;-67
2024/03/27 12:25:31;;;;;;;;;;;9.30;99.90;;;;;;5054281;28;19905;-67
2024/03/27 12:28:06;;;;;;;;;;;9.40;99.90;;;;;;5054018;28;19966;-66
2024/03/27 12:30:36;;;;;;;;;;;9.30;99.90;;;;;;5054342;28;19912;-66
2024/03/27 12:33:02;;;;;;;;;;;9.30;99.90;;;;;;5054312;28;19936;-66
2024/03/27 12:35:28;;;;;;;;;;;9.30;99.90;;;;;;5054192;28;20538;-67
2024/03/27 12:37:54;;;;;;;;;;;9.20;99.90;;;;;;5053645;28;20312;-66
2024/03/27 12:40:19;;;;;;;;;;;9.20;99.90;;;;;;5053871;28;20009;-67
2024/03/27 12:42:45;;;;;;;;;;;9.40;99.90;;;;;;5053810;28;19905;-66
2024/03/27 12:45:10;;;;;;;;;;;9.40;99.90;;;;;;5053662;28;19963;-67
2024/03/27 12:47:36;;;;;;;;;;;9.50;99.90;;;;;;5053458;28;19911;-67
2024/03/27 12:50:01;;;;;;;;;;;9.60;99.90;;;;;;5053576;28;19913;-67
2024/03/27 12:52:27;;;;;;;;;;;9.70;99.90;;;;;;5053600;28;19950;-67
2024/03/27 12:54:54;;;;;;;;;;;9.90;96.30;;;;;;5053507;28;19948;-67
2024/03/27 12:57:19;;;;;;;;;;;10.20;98.90;;;;;;5053138;28;19908;-67
2024/03/27 12:59:45;;;;;;;;;;;10.10;82.80;;;;;;5053492;28;19904;-67
2024/03/27 13:02:11;;;;;;;;;;;10.20;72.70;;;;;;5053305;28;19904;-67
2024/03/27 13:04:37;;;;;;;;;;;10.30;67.70;;;;;;5053402;28;19995;-67
2024/03/27 13:07:02;;;;;;;;;;;10.30;50.90;;;;;;5053040;28;19996;-67
2024/03/27 13:09:28;;;;;;;;;;;10.50;43.10;;;;;;5052985;28;19909;-67
2024/03/27 13:11:53;;;;;;;;;;;10.40;28.90;;;;;;5053281;28;19905;-67
2024/03/27 13:14:19;;;;;;;;;;;10.70;41.60;;;;;;5053238;28;19916;-67
2024/03/27 13:16:44;;;;;;;;;;;10.90;40.80;;;;;;5052618;28;20368;-67
2024/03/27 13:19:10;;;;;;;;;;;11.00;27.50;;;;;;5053039;28;19946;-67
2024/03/27 13:21:36;;;;;;;;;;;11.10;22.50;;;;;;5053067;28;19904;-67
2024/03/27 13:24:02;;;;;;;;;;;11.20;15.50;;;;;;5052792;28;19999;-67
2024/03/27 13:26:27;;;;;;;;;;;11.40;13.20;;;;;;5052714;28;19994;-67
2024/03/27 13:28:53;;;;;;;;;;;11.50;9.60;;;;;;5052906;28;19932;-67
2024/03/27 13:31:18;;;;;;;;;;;11.60;8.00;;;;;;5052505;28;19923;-67
2024/03/27 13:33:44;;;;;;;;;;;11.60;5.80;;;;;;5052844;28;20280;-67
2024/03/27 13:36:10;;;;;;;;;;;11.50;2.30;;;;;;5052788;28;19936;-67
2024/03/27 13:38:36;;;;;;;;;;;11.50;1.00;;;;;;5052261;28;19911;-67
2024/03/27 13:41:02;;;;;;;;;;;11.50;1.00;;;;;;5052604;28;19904;-67
2024/03/27 13:43:28;;;;;;;;;;;11.60;1.00;;;;;;5052829;28;20031;-67
2024/03/27 13:45:54;;;;;;;;;;;11.60;1.00;;;;;;5052460;28;19915;-67
2024/03/27 13:48:20;;;;;;;;;;;11.60;1.00;;;;;;5052247;28;19966;-67
2024/03/27 13:50:45;;;;;;;;;;;11.70;1.00;;;;;;5052555;28;19908;-67
2024/03/27 13:53:11;;;;;;;;;;;11.70;1.00;;;;;;5052317;28;19999;-67
2024/03/27 13:55:37;;;;;;;;;;;11.80;1.00;;;;;;5052372;28;20238;-67
2024/03/27 13:58:03;;;;;;;;;;;11.70;4.90;;;;;;5052136;28;19991;-67
2024/03/27 14:00:28;;;;;;;;;;;11.60;5.20;;;;;;5052367;28;20424;-67
2024/03/27 14:02:54;;;;;;;;;;;11.40;11.10;;;;;;5052390;28;20361;-67
2024/03/27 14:05:19;;;;;;;;;;;11.40;13.50;;;;;;5052352;28;19912;-67
2024/03/27 14:07:45;;;;;;;;;;;11.40;15.00;;;;;;5051864;28;19947;-67
2024/03/27 14:10:11;;;;;;;;;;;11.30;14.00;;;;;;5052173;28;20386;-67
2024/03/27 14:12:36;;;;;;;;;;;11.20;13.40;;;;;;5052451;28;19908;-67